CWEU

Eureka Airport

Eureka, Canada
METAR CWEU 241900Z 32009KT 15SM SKC M32/M35 A2930 RMK SLP925
Observed Flight Rules
Feb-24 @ 19:00 UTC (an hour ago) Visual Flight Rules
Wind Visibility Clouds
320° at 9 knots 15 miles
  • Clear skies
Temperatures Readings
Current -32°C / -26°F
Dewpoint -35°C / -31°F
Humidity 75%
Altimeter 29.3" Hg
Pressure 992.5 hPa
Elevation 10
METAR CWEU 241900Z 32009KT 15SM SKC M32/M35 A2930 RMK SLP925
Observed Flight Rules
Feb-24 @ 19:00 UTC
(an hour ago)
VFR
Wind Visibility
320° at 9 knots 15 miles
Clouds
  • Clear skies
Temperature Dewpoint
-32°C / -26°F -35°C / -31°F
Humidity Altimeter Pressure
75% 29.3" Hg 992.5 hPa